createdAt,value
2023-01-29T10:07:33.481Z,7.10
2023-01-29T10:10:21.022Z,7.20
2023-01-29T10:13:08.648Z,7.20
2023-01-29T10:15:46.688Z,7.20
2023-01-29T10:18:48.163Z,7.30
2023-01-29T10:21:39.068Z,7.30
2023-01-29T10:24:17.307Z,7.30
2023-01-29T10:26:46.959Z,7.40
2023-01-29T10:29:20.161Z,7.40
2023-01-29T10:31:53.421Z,7.40
2023-01-29T10:34:29.550Z,7.50
2023-01-29T10:36:57.768Z,7.50
2023-01-29T10:39:27.478Z,7.60
2023-01-29T10:42:13.951Z,7.50
2023-01-29T10:44:54.341Z,7.50
2023-01-29T10:47:36.387Z,7.50
2023-01-29T10:50:18.827Z,7.50
2023-01-29T10:53:06.139Z,7.50
2023-01-29T10:55:44.729Z,7.60
2023-01-29T10:58:27.535Z,7.60
2023-01-29T11:00:55.405Z,7.60
2023-01-29T11:03:28.229Z,7.60
2023-01-29T11:06:02.511Z,7.60
2023-01-29T11:08:36.102Z,7.60
2023-01-29T11:11:10.316Z,7.70
2023-01-29T11:13:44.737Z,7.70
2023-01-29T11:16:15.369Z,7.70
2023-01-29T11:18:57.892Z,7.70
2023-01-29T11:21:28.095Z,7.70
2023-01-29T11:24:12.692Z,7.80
2023-01-29T11:26:43.318Z,7.80
2023-01-29T11:29:38.304Z,7.80
2023-01-29T11:32:08.285Z,7.80
2023-01-29T11:34:36.613Z,8.00
2023-01-29T11:37:17.783Z,7.80
2023-01-29T11:39:47.427Z,7.80
2023-01-29T11:42:21.442Z,7.80
2023-01-29T11:44:51.267Z,7.80
2023-01-29T11:47:23.830Z,7.90
2023-01-29T11:49:53.606Z,7.80
2023-01-29T11:52:24.717Z,7.90
2023-01-29T11:54:56.368Z,7.90
2023-01-29T11:57:29.793Z,7.80
2023-01-29T12:00:02.630Z,7.80
2023-01-29T12:02:38.124Z,7.80
2023-01-29T12:05:15.069Z,7.90
2023-01-29T12:07:45.559Z,7.90
2023-01-29T12:10:32.496Z,7.80
2023-01-29T12:13:07.293Z,7.90
2023-01-29T12:15:37.321Z,8.30
2023-01-29T12:18:13.892Z,7.90
2023-01-29T12:20:45.651Z,7.90
2023-01-29T12:23:28.309Z,7.90
2023-01-29T12:26:02.138Z,7.90
2023-01-29T12:28:49.464Z,7.90
2023-01-29T12:31:27.441Z,7.90
2023-01-29T12:34:02.364Z,7.90
2023-01-29T12:36:36.338Z,7.90
2023-01-29T12:39:05.004Z,7.90
2023-01-29T12:41:40.409Z,7.90
2023-01-29T12:44:15.432Z,7.90
2023-01-29T12:46:50.424Z,7.90
2023-01-29T12:49:24.266Z,8.00
2023-01-29T12:52:00.052Z,7.90
2023-01-29T12:54:38.346Z,7.90
2023-01-29T12:57:15.998Z,8.40
2023-01-29T12:59:47.083Z,8.00
2023-01-29T13:02:31.227Z,8.00
2023-01-29T13:05:04.241Z,7.90
2023-01-29T13:07:36.814Z,8.00
2023-01-29T13:10:09.677Z,7.90
2023-01-29T13:12:39.745Z,7.90
2023-01-29T13:15:18.642Z,7.90
2023-01-29T13:17:52.485Z,8.00
2023-01-29T13:20:25.173Z,7.90
2023-01-29T13:22:55.396Z,8.00
2023-01-29T13:25:23.314Z,8.00
2023-01-29T13:27:51.614Z,8.00
2023-01-29T13:30:27.997Z,8.00
2023-01-29T13:33:09.376Z,8.00
2023-01-29T13:35:41.353Z,8.00
2023-01-29T13:38:24.887Z,8.00
2023-01-29T13:40:53.779Z,8.00
2023-01-29T13:43:23.866Z,8.00
2023-01-29T13:45:53.900Z,8.10
2023-01-29T13:48:28.237Z,8.20
2023-01-29T13:50:57.721Z,8.10
2023-01-29T13:53:28.571Z,8.10
2023-01-29T13:55:56.716Z,8.20
2023-01-29T13:58:54.407Z,8.20
2023-01-29T14:01:55.650Z,8.20
2023-01-29T14:04:29.634Z,8.20
2023-01-29T14:06:58.666Z,8.20
2023-01-29T14:09:48.628Z,8.20
2023-01-29T14:12:47.877Z,8.30
2023-01-29T14:15:22.169Z,8.30
2023-01-29T14:18:00.670Z,8.30
2023-01-29T14:20:46.449Z,8.30
2023-01-29T14:23:28.529Z,8.40
2023-01-29T14:25:57.258Z,8.40
2023-01-29T14:28:29.333Z,8.40
2023-01-29T14:30:57.849Z,8.20
2023-01-29T14:33:29.827Z,8.40
2023-01-29T14:35:59.499Z,8.40
2023-01-29T14:38:29.755Z,8.40
2023-01-29T14:41:09.843Z,8.40
2023-01-29T14:43:37.731Z,8.40
2023-01-29T14:46:44.052Z,8.50
2023-01-29T14:49:12.465Z,8.40
2023-01-29T14:51:45.894Z,8.50
2023-01-29T14:54:23.667Z,8.50
2023-01-29T14:56:59.681Z,8.50
2023-01-29T14:59:33.807Z,8.50
2023-01-29T15:02:12.755Z,8.50
2023-01-29T15:04:45.945Z,8.60
2023-01-29T15:07:26.371Z,8.50
2023-01-29T15:10:18.851Z,8.50
2023-01-29T15:12:51.894Z,8.50
2023-01-29T15:15:27.504Z,8.50
2023-01-29T15:18:00.810Z,8.60
2023-01-29T15:20:34.311Z,8.50
2023-01-29T15:23:07.018Z,8.50
2023-01-29T15:25:38.200Z,8.50
2023-01-29T15:28:12.282Z,8.60
2023-01-29T15:30:43.131Z,8.60
2023-01-29T15:33:12.569Z,8.60
2023-01-29T15:35:42.251Z,8.60
2023-01-29T15:38:18.601Z,8.60
2023-01-29T15:40:54.171Z,8.70
2023-01-29T15:43:24.044Z,8.50
2023-01-29T15:45:54.356Z,8.50
2023-01-29T15:48:29.229Z,6.90
2023-01-29T15:50:57.847Z,8.50
2023-01-29T15:53:32.058Z,8.50
2023-01-29T15:56:00.197Z,8.50
2023-01-29T15:58:32.102Z,8.50
2023-01-29T16:01:01.820Z,8.50
2023-01-29T16:03:33.499Z,8.50
2023-01-29T16:06:02.656Z,8.50
2023-01-29T16:08:31.969Z,8.80
2023-01-29T16:11:03.701Z,8.40
2023-01-29T16:13:33.930Z,8.40
2023-01-29T16:16:04.926Z,8.40
2023-01-29T16:18:36.427Z,8.40
2023-01-29T16:21:09.025Z,8.40
2023-01-29T16:23:43.085Z,8.40
2023-01-29T16:26:16.654Z,8.40
2023-01-29T16:28:45.920Z,8.40
2023-01-29T16:31:15.358Z,8.40
2023-01-29T16:33:45.677Z,8.40
2023-01-29T16:36:18.525Z,8.40
2023-01-29T16:38:51.847Z,8.40
2023-01-29T16:41:31.831Z,8.30
2023-01-29T16:44:01.929Z,8.30
2023-01-29T16:46:46.124Z,8.30
2023-01-29T16:49:44.655Z,8.30
2023-01-29T16:52:21.610Z,8.20
2023-01-29T16:54:50.889Z,8.30
2023-01-29T16:57:23.773Z,8.20
2023-01-29T16:59:56.841Z,8.30
2023-01-29T17:02:28.447Z,8.20
2023-01-29T17:05:01.277Z,8.20
2023-01-29T17:07:29.887Z,8.10
2023-01-29T17:10:01.630Z,8.10
2023-01-29T17:12:31.696Z,8.10
2023-01-29T17:15:01.690Z,8.10
2023-01-29T17:17:34.290Z,8.00
2023-01-29T17:20:13.953Z,8.00
2023-01-29T17:22:41.780Z,7.90
2023-01-29T17:25:15.761Z,8.00
2023-01-29T17:27:51.561Z,7.90
2023-01-29T17:30:20.864Z,7.90
2023-01-29T17:32:48.823Z,7.90
2023-01-29T17:35:18.364Z,7.90
2023-01-29T17:37:48.829Z,7.90
2023-01-29T17:40:29.383Z,6.50
2023-01-29T17:42:57.150Z,8.50
2023-01-29T17:45:25.102Z,7.80
2023-01-29T17:47:52.924Z,7.80
2023-01-29T17:50:24.418Z,7.80
2023-01-29T17:52:53.164Z,7.80
2023-01-29T17:55:22.812Z,7.80
2023-01-29T17:57:50.615Z,7.80
2023-01-29T18:00:20.572Z,7.80
2023-01-29T18:02:48.478Z,7.80
2023-01-29T18:05:18.254Z,7.80
2023-01-29T18:07:47.929Z,7.80
2023-01-29T18:10:19.446Z,7.80
2023-01-29T18:12:48.798Z,7.70
2023-01-29T18:15:16.976Z,8.10
2023-01-29T18:17:48.329Z,7.80
2023-01-29T18:20:22.077Z,7.80
2023-01-29T18:22:50.023Z,7.80
2023-01-29T18:25:18.907Z,7.90
2023-01-29T18:27:51.593Z,7.80
2023-01-29T18:30:19.743Z,7.80
2023-01-29T18:32:48.302Z,8.00
2023-01-29T18:35:17.489Z,7.80
2023-01-29T18:37:45.619Z,7.80
2023-01-29T18:40:17.140Z,7.90
2023-01-29T18:42:47.547Z,7.80
2023-01-29T18:45:17.189Z,7.80
2023-01-29T18:47:48.579Z,7.80
2023-01-29T18:50:16.984Z,7.80
2023-01-29T18:52:44.851Z,7.80
2023-01-29T18:55:12.813Z,7.80
2023-01-29T18:58:27.204Z,7.80
2023-01-29T19:00:29.860Z,7.80
2023-01-29T19:02:57.725Z,7.90
2023-01-29T19:05:25.661Z,7.80
2023-01-29T19:07:53.615Z,8.10
2023-01-29T19:10:21.759Z,7.80
2023-01-29T19:12:49.608Z,7.80
2023-01-29T19:15:20.810Z,7.80
2023-01-29T19:17:50.052Z,7.90
2023-01-29T19:20:18.802Z,7.80
2023-01-29T19:22:46.796Z,7.80
2023-01-29T19:25:16.031Z,7.80
2023-01-29T19:27:44.666Z,7.80
2023-01-29T19:30:13.800Z,7.80
2023-01-29T19:32:41.781Z,7.80
2023-01-29T19:35:11.298Z,7.80
2023-01-29T19:37:39.152Z,7.80
2023-01-29T19:40:08.192Z,7.80
2023-01-29T19:42:37.410Z,5.30
2023-01-29T19:45:07.451Z,7.80
2023-01-29T19:47:39.768Z,7.80
2023-01-29T19:50:08.668Z,7.80
2023-01-29T19:52:50.756Z,7.80
2023-01-29T19:55:20.885Z,7.80
2023-01-29T19:57:49.335Z,7.80
2023-01-29T20:00:19.500Z,7.80
2023-01-29T20:02:47.786Z,7.80
2023-01-29T20:05:20.277Z,9.40
2023-01-29T20:07:50.555Z,7.80
2023-01-29T20:10:18.981Z,7.80
2023-01-29T20:12:50.078Z,7.80
2023-01-29T20:15:17.988Z,7.80
2023-01-29T20:17:45.973Z,7.80
2023-01-29T20:20:16.189Z,7.80
2023-01-29T20:22:44.638Z,7.80
2023-01-29T20:25:17.008Z,7.80
2023-01-29T20:27:44.881Z,7.90
2023-01-29T20:30:13.813Z,7.90
2023-01-29T20:32:41.787Z,7.90
2023-01-29T20:35:10.752Z,7.90
2023-01-29T20:37:38.676Z,7.90
2023-01-29T20:40:07.405Z,7.90
2023-01-29T20:42:36.650Z,7.90
2023-01-29T20:45:05.677Z,7.90
2023-01-29T20:47:33.503Z,7.90
2023-01-29T20:50:08.274Z,7.90
2023-01-29T20:52:36.328Z,7.90
2023-01-29T20:55:08.603Z,7.90
2023-01-29T20:57:38.296Z,7.90
2023-01-29T21:00:08.265Z,7.90
2023-01-29T21:02:36.405Z,8.00
2023-01-29T21:05:06.466Z,8.00
2023-01-29T21:07:36.000Z,8.00
2023-01-29T21:10:03.979Z,8.00
2023-01-29T21:12:31.765Z,8.00
2023-01-29T21:15:00.906Z,8.00
2023-01-29T21:17:28.740Z,8.00
2023-01-29T21:19:56.634Z,8.20
2023-01-29T21:22:24.972Z,8.10
2023-01-29T21:24:52.904Z,8.10
2023-01-29T21:27:20.711Z,8.10
2023-01-29T21:29:48.525Z,8.10
2023-01-29T21:32:18.632Z,8.70
2023-01-29T21:34:46.707Z,8.10
2023-01-29T21:37:14.740Z,8.20
2023-01-29T21:39:42.557Z,8.20
2023-01-29T21:42:42.311Z,8.20
2023-01-29T21:45:11.111Z,8.20
2023-01-29T21:47:40.278Z,8.20
2023-01-29T21:50:09.021Z,8.20
2023-01-29T21:52:36.845Z,8.30
2023-01-29T21:55:05.984Z,8.30
2023-01-29T21:57:34.033Z,8.30
2023-01-29T22:00:01.972Z,8.80
2023-01-29T22:02:31.886Z,8.40
2023-01-29T22:05:18.129Z,8.40
2023-01-29T22:07:47.719Z,8.40
2023-01-29T22:10:17.206Z,8.20
2023-01-29T22:12:46.948Z,8.50
2023-01-29T22:15:16.073Z,8.50
2023-01-29T22:17:46.485Z,8.50
2023-01-29T22:20:17.154Z,8.50
2023-01-29T22:22:45.654Z,8.60
2023-01-29T22:25:13.777Z,8.60
2023-01-29T22:27:41.756Z,8.60
2023-01-29T22:30:11.254Z,8.60
2023-01-29T22:32:39.090Z,8.60
2023-01-29T22:35:08.112Z,8.70
2023-01-29T22:37:37.345Z,8.70
2023-01-29T22:40:06.241Z,8.70
2023-01-29T22:42:34.049Z,8.70
2023-01-29T22:45:01.881Z,8.70
2023-01-29T22:47:29.687Z,8.80
2023-01-29T22:49:57.485Z,8.80
2023-01-29T22:52:27.832Z,8.80
2023-01-29T22:54:57.076Z,8.80
2023-01-29T22:57:24.902Z,8.80
2023-01-29T22:59:53.640Z,8.80
2023-01-29T23:02:21.846Z,8.90
2023-01-29T23:04:49.752Z,8.90
2023-01-29T23:07:17.595Z,9.10
2023-01-29T23:09:47.304Z,9.00
2023-01-29T23:12:16.932Z,9.00
2023-01-29T23:14:44.815Z,9.00
2023-01-29T23:17:12.806Z,9.00
2023-01-29T23:19:40.601Z,9.00
2023-01-29T23:22:08.375Z,9.20
2023-01-29T23:24:36.231Z,9.70
2023-01-29T23:27:15.211Z,9.10
2023-01-29T23:29:45.939Z,9.10
2023-01-29T23:32:16.416Z,9.10
2023-01-29T23:34:46.447Z,9.20
2023-01-29T23:37:14.879Z,9.20
2023-01-29T23:39:42.680Z,9.20
2023-01-29T23:42:10.612Z,9.20
2023-01-29T23:44:40.168Z,9.20
2023-01-29T23:47:09.872Z,9.30
2023-01-29T23:49:38.114Z,9.30
2023-01-29T23:52:08.704Z,9.30
2023-01-29T23:54:36.550Z,9.30
2023-01-29T23:57:04.840Z,9.30
2023-01-29T23:59:32.634Z,9.40
